Terminal Aerodrome Forecast
Issued by NWS Albany, NY

Home | Current Version | Previous Version | Text Only | Print | Product List | Glossary On
Versions: 1 2 3 4 5 6 7 8 9 10 11 12 13 14 15 16 17 18 19 20 21 22 23 24 25 26
000
FTUS41 KALY 011400 AAA
TAFALB
TAF AMD
KALB 011417Z 0114/0212 VRB04KT P6SM SCT250
     FM011700 31007KT P6SM BKN250
     FM012200 35005KT P6SM VCSH BKN035 OVC150
     FM020500 02006KT 5SM -SN BR BKN025 OVC040
     FM020700 01008KT 1 1/2SM -SN BR BKN008 OVC015
     FM021000 01012G18KT 1/2SM SN FZFG VV004=

USA.gov is the U.S. government's official web portal to all federal, state and local government web resources and services.